Time;durP1;ratioP1;P1;durP2;ratioP2;P2;SDS_P1;SDS_P2;PMS_P1;PMS_P2;Temp;Humidity;BMP_temperature;BMP_pressure;BME280_temperature;BME280_humidity;BME280_pressure;Samples;Min_cycle;Max_cycle;Signal;HPM_P1;HPM_P2
2020/12/20 00:01:11;;;;;;;12.90;8.03;;;5.60;99.90;;;;;;4190039;28;20472;-58
2020/12/20 00:03:12;;;;;;;14.97;8.90;;;5.60;99.90;;;;;;4191804;28;20470;-58
2020/12/20 00:05:14;;;;;;;17.80;9.53;;;5.60;99.90;;;;;;4190352;28;20469;-57
2020/12/20 00:07:15;;;;;;;15.33;8.77;;;5.60;99.90;;;;;;4190355;28;20509;-57
2020/12/20 00:09:18;;;;;;;15.27;8.43;;;5.60;99.90;;;;;;4190310;28;20495;-57
2020/12/20 00:11:20;;;;;;;15.67;8.13;;;5.60;99.90;;;;;;4190469;28;20554;-58
2020/12/20 00:13:21;;;;;;;15.90;8.60;;;5.60;99.90;;;;;;4190349;28;20502;-58
2020/12/20 00:15:23;;;;;;;16.17;8.20;;;5.70;99.90;;;;;;4195396;28;20975;-57
2020/12/20 00:17:24;;;;;;;16.53;9.03;;;5.70;99.90;;;;;;4194350;28;20475;-57
2020/12/20 00:19:26;;;;;;;14.37;7.93;;;5.70;99.90;;;;;;4195118;28;20468;-57
2020/12/20 00:21:28;;;;;;;13.57;7.83;;;5.70;99.90;;;;;;4195093;28;22567;-57
2020/12/20 00:23:30;;;;;;;17.03;8.67;;;5.70;99.90;;;;;;4196847;28;20468;-59
2020/12/20 00:25:31;;;;;;;16.53;8.90;;;5.70;99.90;;;;;;4196169;28;20471;-57
2020/12/20 00:27:32;;;;;;;17.00;9.13;;;5.70;99.90;;;;;;4195843;28;20480;-57
2020/12/20 00:29:34;;;;;;;17.13;9.60;;;5.70;99.90;;;;;;4196899;28;20469;-58
2020/12/20 00:31:37;;;;;;;16.47;8.83;;;5.70;99.90;;;;;;4195020;28;20481;-57
2020/12/20 00:33:38;;;;;;;16.77;9.30;;;5.70;99.90;;;;;;4196948;28;20531;-57
2020/12/20 00:35:40;;;;;;;15.23;8.87;;;5.70;99.90;;;;;;4196162;28;20467;-57
2020/12/20 00:37:42;;;;;;;15.20;8.30;;;5.70;99.90;;;;;;4193957;28;20486;-57
2020/12/20 00:39:43;;;;;;;15.93;8.70;;;5.70;99.90;;;;;;4196287;28;20577;-57
2020/12/20 00:41:49;;;;;;;13.27;7.53;;;5.70;99.90;;;;;;4195241;28;20922;-57
2020/12/20 00:43:51;;;;;;;15.33;8.60;;;5.70;99.90;;;;;;4195274;28;20467;-56
2020/12/20 00:45:52;;;;;;;14.60;8.33;;;5.70;99.90;;;;;;4192800;28;20460;-56
2020/12/20 00:47:53;;;;;;;14.23;8.13;;;5.70;99.90;;;;;;4195603;28;20475;-56
2020/12/20 00:49:55;;;;;;;16.07;8.27;;;5.70;99.90;;;;;;4193787;28;20476;-57
2020/12/20 00:51:58;;;;;;;14.50;7.70;;;5.70;99.90;;;;;;4196072;28;20479;-57
2020/12/20 00:54:00;;;;;;;14.30;8.30;;;5.70;99.90;;;;;;4194592;28;21118;-57
2020/12/20 00:56:01;;;;;;;17.53;9.30;;;5.70;99.90;;;;;;4195149;28;20509;-57
2020/12/20 00:58:03;;;;;;;20.27;10.13;;;5.70;99.90;;;;;;4195245;28;20470;-57
2020/12/20 01:00:05;;;;;;;17.73;9.63;;;5.70;99.90;;;;;;4194913;28;20532;-57
2020/12/20 01:02:07;;;;;;;18.23;9.77;;;5.70;99.90;;;;;;4193529;28;21001;-58
2020/12/20 01:04:08;;;;;;;17.97;9.77;;;5.60;99.90;;;;;;4193720;28;20553;-57
2020/12/20 01:06:15;;;;;;;16.97;9.40;;;5.60;99.90;;;;;;4195470;28;20475;-57
2020/12/20 01:08:17;;;;;;;18.03;9.70;;;5.60;99.90;;;;;;4194969;28;20610;-58
2020/12/20 01:10:19;;;;;;;17.57;8.80;;;5.60;99.90;;;;;;4194838;28;20467;-57
2020/12/20 01:12:21;;;;;;;15.70;8.90;;;5.60;99.90;;;;;;4194592;28;20524;-57
2020/12/20 01:14:22;;;;;;;14.80;8.40;;;5.60;99.90;;;;;;4192517;28;20561;-57
2020/12/20 01:16:25;;;;;;;15.13;8.70;;;5.60;99.90;;;;;;4194236;28;20471;-57
2020/12/20 01:18:27;;;;;;;15.50;8.33;;;5.70;99.90;;;;;;4196256;28;20467;-58
2020/12/20 01:20:28;;;;;;;12.27;7.60;;;5.70;99.90;;;;;;4194471;28;20470;-58
2020/12/20 01:22:31;;;;;;;14.63;8.10;;;5.70;99.90;;;;;;4194667;28;20462;-57
2020/12/20 01:24:32;;;;;;;13.80;8.17;;;5.70;99.90;;;;;;4194822;28;20475;-57
2020/12/20 01:26:34;;;;;;;16.43;8.97;;;5.70;99.90;;;;;;4190509;28;20510;-57
2020/12/20 01:28:36;;;;;;;14.23;8.20;;;5.70;99.90;;;;;;4190362;28;20884;-57
2020/12/20 01:30:37;;;;;;;17.17;8.43;;;5.70;99.90;;;;;;4191462;28;20461;-58
2020/12/20 01:32:39;;;;;;;16.17;8.77;;;5.70;99.90;;;;;;4190417;28;20479;-57
2020/12/20 01:34:40;;;;;;;19.13;10.33;;;5.70;99.90;;;;;;4191198;28;20494;-57
2020/12/20 01:36:41;;;;;;;19.57;10.67;;;5.70;99.90;;;;;;4192047;28;21007;-58
2020/12/20 01:38:44;;;;;;;22.87;12.17;;;5.70;99.90;;;;;;4191886;28;20463;-57
2020/12/20 01:40:51;;;;;;;22.57;11.77;;;5.60;99.90;;;;;;4190417;28;20475;-57
2020/12/20 01:42:56;;;;;;;22.27;11.67;;;5.60;99.90;;;;;;4191254;28;20464;-57
2020/12/20 01:44:58;;;;;;;20.20;11.47;;;5.60;99.90;;;;;;4190746;28;20557;-57
2020/12/20 01:47:00;;;;;;;19.30;11.13;;;5.60;99.90;;;;;;4190056;28;20464;-59
2020/12/20 01:49:02;;;;;;;20.03;10.90;;;5.50;99.90;;;;;;4192153;28;20502;-57
2020/12/20 01:51:04;;;;;;;21.43;11.03;;;5.50;99.90;;;;;;4192083;28;20467;-57
2020/12/20 01:53:06;;;;;;;18.73;10.13;;;5.50;99.90;;;;;;4191656;28;20472;-57
2020/12/20 01:55:08;;;;;;;20.90;10.10;;;5.50;99.90;;;;;;4191583;28;20475;-57
2020/12/20 01:57:10;;;;;;;21.33;10.87;;;5.50;99.90;;;;;;4192145;28;20494;-57
2020/12/20 01:59:12;;;;;;;17.37;9.23;;;5.50;99.90;;;;;;4191132;28;20486;-57
2020/12/20 02:01:13;;;;;;;18.00;9.40;;;5.60;99.90;;;;;;4191034;28;20507;-56
2020/12/20 02:03:14;;;;;;;17.13;9.67;;;5.60;99.90;;;;;;4190893;28;20472;-56
2020/12/20 02:05:16;;;;;;;17.47;9.57;;;5.50;99.90;;;;;;4190492;28;20475;-57
2020/12/20 02:07:17;;;;;;;18.97;9.83;;;5.60;99.90;;;;;;4191564;28;20490;-56
2020/12/20 02:09:19;;;;;;;18.63;10.07;;;5.60;99.90;;;;;;4191164;28;20530;-56
2020/12/20 02:11:20;;;;;;;19.83;10.13;;;5.60;99.90;;;;;;4191161;28;20482;-56
2020/12/20 02:13:21;;;;;;;17.40;9.80;;;5.60;99.90;;;;;;4190990;28;20493;-57
2020/12/20 02:15:24;;;;;;;18.97;9.73;;;5.60;99.90;;;;;;4191053;28;20518;-56
2020/12/20 02:17:25;;;;;;;18.33;9.63;;;5.60;99.90;;;;;;4189245;28;20479;-56
2020/12/20 02:19:26;;;;;;;17.67;9.20;;;5.60;99.90;;;;;;4191247;28;20466;-56
2020/12/20 02:21:29;;;;;;;18.90;9.73;;;5.60;99.90;;;;;;4191151;28;20472;-58
2020/12/20 02:23:39;;;;;;;19.07;10.37;;;5.70;99.90;;;;;;4190193;28;20484;-57
2020/12/20 02:25:41;;;;;;;16.23;9.23;;;5.70;99.90;;;;;;4189029;28;20482;-57
2020/12/20 02:27:42;;;;;;;17.30;9.77;;;5.60;99.90;;;;;;4191056;28;20486;-56
2020/12/20 02:29:43;;;;;;;19.87;10.57;;;5.60;99.90;;;;;;4192060;28;20479;-56
2020/12/20 02:31:45;;;;;;;22.73;11.30;;;5.60;99.90;;;;;;4190602;28;22407;-56
2020/12/20 02:33:46;;;;;;;19.07;10.70;;;5.60;99.90;;;;;;4190870;28;20510;-56
2020/12/20 02:35:47;;;;;;;21.67;10.57;;;5.60;99.90;;;;;;4190219;28;20534;-57
2020/12/20 02:37:49;;;;;;;19.47;10.40;;;5.60;99.90;;;;;;4190560;28;20468;-56
2020/12/20 02:39:51;;;;;;;18.43;10.03;;;5.60;99.90;;;;;;4189936;28;20476;-56
2020/12/20 02:41:55;;;;;;;19.17;10.33;;;5.60;99.90;;;;;;4190132;28;20522;-56
2020/12/20 02:43:56;;;;;;;19.53;10.57;;;5.60;99.90;;;;;;4190892;28;20949;-56
2020/12/20 02:45:58;;;;;;;18.70;9.83;;;5.60;99.90;;;;;;4191037;28;20525;-57
2020/12/20 02:47:59;;;;;;;20.03;9.90;;;5.60;99.90;;;;;;4190146;28;20471;-56
2020/12/20 02:50:00;;;;;;;18.60;10.40;;;5.60;99.90;;;;;;4191672;28;20603;-56
2020/12/20 02:52:01;;;;;;;16.87;9.70;;;5.60;99.90;;;;;;4191163;28;20479;-56
2020/12/20 02:54:04;;;;;;;19.70;10.47;;;5.50;99.90;;;;;;4190393;28;21109;-57
2020/12/20 02:56:05;;;;;;;19.17;10.27;;;5.50;99.90;;;;;;4190578;28;20943;-56
2020/12/20 02:58:06;;;;;;;18.17;10.17;;;5.50;99.90;;;;;;4190500;28;20479;-57
2020/12/20 03:00:08;;;;;;;18.40;10.37;;;5.50;99.90;;;;;;4190508;28;20472;-57
2020/12/20 03:02:09;;;;;;;18.23;9.70;;;5.40;99.90;;;;;;4190721;28;20471;-57
2020/12/20 03:04:10;;;;;;;18.63;10.07;;;5.40;99.90;;;;;;4190586;28;20497;-57
2020/12/20 03:06:12;;;;;;;20.27;10.53;;;5.40;99.90;;;;;;4188936;28;20479;-56
2020/12/20 03:08:13;;;;;;;19.13;10.47;;;5.40;99.90;;;;;;4188289;28;20572;-57
2020/12/20 03:10:17;;;;;;;16.70;9.70;;;5.40;99.90;;;;;;4190298;28;20555;-57
2020/12/20 03:12:18;;;;;;;17.43;10.00;;;5.40;99.90;;;;;;4189847;28;20480;-58
2020/12/20 03:14:19;;;;;;;16.90;9.03;;;5.40;99.90;;;;;;4189827;28;21462;-57
2020/12/20 03:16:21;;;;;;;17.23;9.30;;;5.40;99.90;;;;;;4190758;28;20464;-57
2020/12/20 03:18:22;;;;;;;17.93;9.70;;;5.40;99.90;;;;;;4190761;28;20475;-58
2020/12/20 03:20:23;;;;;;;16.47;9.47;;;5.40;99.90;;;;;;4190313;28;20467;-57
2020/12/20 03:22:25;;;;;;;17.60;9.43;;;5.40;99.90;;;;;;4188520;28;20465;-57
2020/12/20 03:24:26;;;;;;;16.07;9.13;;;5.40;99.90;;;;;;4191614;28;20474;-57
2020/12/20 03:26:28;;;;;;;18.33;9.53;;;5.40;99.90;;;;;;4188500;28;20465;-57
2020/12/20 03:28:30;;;;;;;15.13;9.13;;;5.40;99.90;;;;;;4189341;28;20475;-57
2020/12/20 03:30:31;;;;;;;16.00;9.00;;;5.40;99.90;;;;;;4188510;28;20982;-57
2020/12/20 03:32:32;;;;;;;16.97;9.43;;;5.40;99.90;;;;;;4189846;28;20482;-57
2020/12/20 03:34:34;;;;;;;15.67;9.07;;;5.40;99.90;;;;;;4190675;28;20510;-57
2020/12/20 03:36:35;;;;;;;16.63;9.10;;;5.40;99.90;;;;;;4191446;28;20466;-58
2020/12/20 03:38:36;;;;;;;18.10;9.53;;;5.40;99.90;;;;;;4191790;28;20468;-59
2020/12/20 03:40:38;;;;;;;17.80;9.37;;;5.40;99.90;;;;;;4189368;28;20459;-58
2020/12/20 03:42:40;;;;;;;16.80;8.80;;;5.40;99.90;;;;;;4190554;28;20476;-57
2020/12/20 03:44:41;;;;;;;16.03;8.73;;;5.40;99.90;;;;;;4189053;28;20595;-57
2020/12/20 03:46:43;;;;;;;16.90;8.87;;;5.40;99.90;;;;;;4189736;28;20498;-57
2020/12/20 03:48:44;;;;;;;16.10;8.50;;;5.50;99.90;;;;;;4189973;28;20471;-57
2020/12/20 03:50:45;;;;;;;14.73;8.50;;;5.50;99.90;;;;;;4189715;28;20543;-59
2020/12/20 03:52:46;;;;;;;16.47;8.73;;;5.50;99.90;;;;;;4189993;28;20465;-57
2020/12/20 03:54:48;;;;;;;16.13;8.83;;;5.50;99.90;;;;;;4191191;28;20881;-59
2020/12/20 03:56:50;;;;;;;15.43;8.23;;;5.50;99.90;;;;;;4189006;28;20486;-58
2020/12/20 03:58:52;;;;;;;16.80;8.77;;;5.50;99.90;;;;;;4187774;28;20482;-57
2020/12/20 04:00:53;;;;;;;14.73;8.97;;;5.50;99.90;;;;;;4190998;28;20478;-57
2020/12/20 04:02:55;;;;;;;16.97;9.60;;;5.50;99.90;;;;;;4189497;28;20475;-57
2020/12/20 04:04:56;;;;;;;18.67;10.40;;;5.50;99.90;;;;;;4189209;28;20508;-57
2020/12/20 04:06:57;;;;;;;18.83;10.10;;;5.40;99.90;;;;;;4190265;28;20495;-56
2020/12/20 04:08:59;;;;;;;17.27;10.17;;;5.40;99.90;;;;;;4190170;28;20465;-57
2020/12/20 04:11:01;;;;;;;18.73;9.90;;;5.40;99.90;;;;;;4189875;28;22230;-57
2020/12/20 04:13:02;;;;;;;16.70;9.80;;;5.40;99.90;;;;;;4187373;28;20488;-57
2020/12/20 04:15:05;;;;;;;19.57;11.23;;;5.30;99.90;;;;;;4189194;28;20819;-57
2020/12/20 04:17:06;;;;;;;17.27;10.07;;;5.30;99.90;;;;;;4188525;28;20522;-57
2020/12/20 04:19:07;;;;;;;19.90;10.77;;;5.30;99.90;;;;;;4188607;28;20479;-57
2020/12/20 04:21:09;;;;;;;17.47;9.80;;;5.30;99.90;;;;;;4191278;28;20495;-57
2020/12/20 04:23:10;;;;;;;16.93;9.63;;;5.40;99.90;;;;;;4189509;28;20480;-57
2020/12/20 04:25:11;;;;;;;21.10;10.00;;;5.30;99.90;;;;;;4190079;28;20479;-57
2020/12/20 04:27:13;;;;;;;19.20;9.77;;;5.40;99.90;;;;;;4191151;28;21199;-57
2020/12/20 04:29:14;;;;;;;17.80;9.63;;;5.30;99.90;;;;;;4189841;28;20471;-57
2020/12/20 04:31:16;;;;;;;19.73;10.90;;;5.30;99.90;;;;;;4189676;28;20483;-57
2020/12/20 04:33:18;;;;;;;18.27;10.07;;;5.40;99.90;;;;;;4190743;28;20468;-56
2020/12/20 04:35:19;;;;;;;16.30;9.33;;;5.30;99.90;;;;;;4188526;28;20464;-57
2020/12/20 04:37:20;;;;;;;18.17;9.70;;;5.30;99.90;;;;;;4191212;28;20472;-58
2020/12/20 04:39:22;;;;;;;16.30;9.17;;;5.30;99.90;;;;;;4190042;28;20554;-59
2020/12/20 04:41:25;;;;;;;15.40;9.17;;;5.30;99.90;;;;;;4190642;28;20472;-59
2020/12/20 04:43:26;;;;;;;16.70;9.30;;;5.30;99.90;;;;;;4189454;28;20476;-59
2020/12/20 04:45:28;;;;;;;16.57;9.20;;;5.30;99.90;;;;;;4188351;28;20568;-59
2020/12/20 04:47:32;;;;;;;17.63;10.00;;;5.30;99.90;;;;;;4189958;28;20776;-60
2020/12/20 04:49:33;;;;;;;17.63;8.93;;;5.30;99.90;;;;;;4190260;28;20569;-60
2020/12/20 04:51:36;;;;;;;16.97;9.07;;;5.30;99.90;;;;;;4189779;28;20471;-58
2020/12/20 04:53:38;;;;;;;16.47;9.03;;;5.20;99.90;;;;;;4191475;28;20531;-59
2020/12/20 04:55:40;;;;;;;17.57;9.27;;;5.30;99.90;;;;;;4190033;28;20495;-59
2020/12/20 04:57:42;;;;;;;19.70;10.00;;;5.20;99.90;;;;;;4188771;28;20501;-59
2020/12/20 04:59:43;;;;;;;16.27;9.37;;;5.20;99.90;;;;;;4189868;28;20472;-59
2020/12/20 05:01:45;;;;;;;16.07;9.57;;;5.20;99.90;;;;;;4191392;28;20487;-59
2020/12/20 05:03:47;;;;;;;18.80;9.90;;;5.20;99.90;;;;;;4193645;28;20456;-59
2020/12/20 05:05:48;;;;;;;17.90;9.37;;;5.20;99.90;;;;;;4192435;28;20479;-59
2020/12/20 05:07:51;;;;;;;18.07;9.87;;;5.20;99.90;;;;;;4192426;28;20510;-58
2020/12/20 05:09:52;;;;;;;17.10;9.20;;;5.20;99.90;;;;;;4193549;28;20483;-59
2020/12/20 05:11:54;;;;;;;16.27;9.73;;;5.20;99.90;;;;;;4192889;28;20483;-59
2020/12/20 05:13:55;;;;;;;18.60;9.83;;;5.20;99.90;;;;;;4191959;28;20499;-59
2020/12/20 05:15:56;;;;;;;19.03;9.87;;;5.20;99.90;;;;;;4191874;28;20482;-58
2020/12/20 05:18:05;;;;;;;18.27;9.77;;;5.20;99.90;;;;;;4192166;28;20472;-58
2020/12/20 05:20:08;;;;;;;19.43;10.57;;;5.20;99.90;;;;;;4195435;28;20482;-58
2020/12/20 05:22:17;;;;;;;19.07;11.13;;;5.10;99.90;;;;;;4192887;28;21270;-58
2020/12/20 05:24:27;;;;;;;19.73;10.53;;;5.10;99.90;;;;;;4193233;28;20459;-58
2020/12/20 05:26:30;;;;;;;19.53;10.70;;;5.10;99.90;;;;;;4192890;28;20460;-59
2020/12/20 05:28:31;;;;;;;21.00;11.37;;;5.10;99.90;;;;;;4191551;28;20500;-58
2020/12/20 05:30:33;;;;;;;21.60;10.93;;;5.10;99.90;;;;;;4192061;28;20492;-59
2020/12/20 05:32:38;;;;;;;21.80;11.23;;;5.10;99.90;;;;;;4192723;28;20467;-58
2020/12/20 05:34:39;;;;;;;20.73;10.97;;;5.10;99.90;;;;;;4192757;28;20491;-58
2020/12/20 05:36:42;;;;;;;22.37;11.33;;;5.10;99.90;;;;;;4194025;28;20545;-59
2020/12/20 05:38:43;;;;;;;19.50;10.83;;;5.10;99.90;;;;;;4193571;28;20472;-59
2020/12/20 05:40:48;;;;;;;21.80;11.57;;;5.10;99.90;;;;;;4193021;28;20475;-59
2020/12/20 05:42:54;;;;;;;20.63;10.83;;;5.10;99.90;;;;;;4194264;28;20467;-58
2020/12/20 05:45:07;;;;;;;20.73;11.33;;;5.10;99.90;;;;;;4190433;28;20471;-59
2020/12/20 05:47:08;;;;;;;21.07;11.27;;;5.10;99.90;;;;;;4193868;28;20943;-58
2020/12/20 05:49:18;;;;;;;22.07;11.13;;;5.00;99.90;;;;;;4193960;28;20472;-58
2020/12/20 05:51:19;;;;;;;21.53;11.70;;;5.00;99.90;;;;;;4190937;28;20474;-58
2020/12/20 05:53:29;;;;;;;22.87;12.33;;;5.00;99.90;;;;;;4192628;28;20935;-58
2020/12/20 05:55:38;;;;;;;23.90;12.13;;;5.00;99.90;;;;;;4192508;28;20654;-58
2020/12/20 05:57:40;;;;;;;22.33;11.77;;;5.00;99.90;;;;;;4194281;28;20478;-58
2020/12/20 05:59:43;;;;;;;22.37;11.50;;;4.90;99.90;;;;;;4192942;28;20483;-58
2020/12/20 06:01:44;;;;;;;21.70;11.90;;;4.90;99.90;;;;;;4192630;28;20482;-59
2020/12/20 06:03:46;;;;;;;22.93;11.50;;;4.90;99.90;;;;;;4193319;28;20480;-59
2020/12/20 06:05:48;;;;;;;23.87;12.27;;;4.90;99.90;;;;;;4192667;28;20697;-59
2020/12/20 06:07:54;;;;;;;20.50;11.10;;;4.90;99.90;;;;;;4191820;28;20499;-59
2020/12/20 06:09:58;;;;;;;22.40;11.77;;;5.00;99.90;;;;;;4193865;28;20464;-58
2020/12/20 06:11:59;;;;;;;21.53;11.53;;;5.00;99.90;;;;;;4190877;28;21977;-58
2020/12/20 06:14:02;;;;;;;20.90;11.30;;;5.00;99.90;;;;;;4193122;28;20500;-58
2020/12/20 06:16:09;;;;;;;19.20;10.70;;;4.90;99.90;;;;;;4192449;28;20962;-59
2020/12/20 06:18:13;;;;;;;21.23;11.27;;;5.00;99.90;;;;;;4190415;28;20486;-58
2020/12/20 06:20:27;;;;;;;21.57;10.77;;;5.00;99.90;;;;;;4192410;28;21308;-58
2020/12/20 06:22:30;;;;;;;20.47;10.57;;;5.00;99.90;;;;;;4192276;28;20475;-58
2020/12/20 06:24:36;;;;;;;20.53;10.80;;;5.00;99.90;;;;;;4191782;28;20568;-57
2020/12/20 06:26:44;;;;;;;21.20;11.17;;;5.00;99.90;;;;;;4192404;28;20467;-58
2020/12/20 06:28:50;;;;;;;24.20;12.40;;;5.00;99.90;;;;;;4191107;28;20478;-58
2020/12/20 06:30:53;;;;;;;20.77;11.33;;;5.00;99.90;;;;;;4191298;28;20537;-58
2020/12/20 06:33:00;;;;;;;23.37;11.50;;;5.00;99.90;;;;;;4191164;28;20472;-58
2020/12/20 06:35:11;;;;;;;23.90;12.47;;;5.00;99.90;;;;;;4191231;28;20475;-59
2020/12/20 06:37:13;;;;;;;24.20;11.13;;;5.00;99.90;;;;;;4192646;28;21083;-59
2020/12/20 06:39:16;;;;;;;24.53;12.00;;;5.00;99.90;;;;;;4191196;28;20488;-58
2020/12/20 06:41:34;;;;;;;25.40;12.30;;;4.90;99.90;;;;;;4191163;28;20498;-58
2020/12/20 06:43:38;;;;;;;24.77;12.17;;;4.90;99.90;;;;;;4193002;28;20467;-56
2020/12/20 06:45:41;;;;;;;24.00;12.47;;;4.90;99.90;;;;;;4190496;28;20479;-58
2020/12/20 06:47:44;;;;;;;23.80;11.67;;;4.90;99.90;;;;;;4192317;28;20475;-58
2020/12/20 06:49:52;;;;;;;22.27;12.00;;;4.90;99.90;;;;;;4192227;28;20464;-59
2020/12/20 06:52:20;;;;;;;22.93;11.57;;;4.90;99.90;;;;;;4191928;28;20475;-54
2020/12/20 06:54:24;;;;;;;23.13;12.03;;;4.90;99.90;;;;;;4192929;28;20509;-55
2020/12/20 06:56:26;;;;;;;22.27;11.50;;;4.90;99.90;;;;;;4191587;28;20463;-55
2020/12/20 06:58:34;;;;;;;25.13;12.80;;;4.90;99.90;;;;;;4193354;28;20467;-54
2020/12/20 07:00:40;;;;;;;26.47;13.13;;;4.90;99.90;;;;;;4191693;28;20475;-55
2020/12/20 07:02:43;;;;;;;25.20;12.60;;;4.90;99.90;;;;;;4191330;28;20651;-55
2020/12/20 07:04:44;;;;;;;23.97;12.00;;;4.90;99.90;;;;;;4192308;28;20970;-55
2020/12/20 07:07:05;;;;;;;21.00;10.93;;;4.90;99.90;;;;;;4189737;28;20467;-55
2020/12/20 07:09:07;;;;;;;21.33;11.30;;;4.90;99.90;;;;;;4190630;28;20499;-54
2020/12/20 07:11:20;;;;;;;21.93;11.60;;;4.90;99.90;;;;;;4191143;28;20962;-55
2020/12/20 07:13:33;;;;;;;22.47;11.97;;;4.90;99.90;;;;;;4191140;28;20467;-55
2020/12/20 07:15:46;;;;;;;25.13;12.33;;;4.90;99.90;;;;;;4192773;28;20463;-55
2020/12/20 07:17:47;;;;;;;25.97;12.97;;;4.90;99.90;;;;;;4191121;28;20478;-55
2020/12/20 07:20:08;;;;;;;24.13;12.40;;;4.80;99.90;;;;;;4191013;28;20480;-54
2020/12/20 07:22:12;;;;;;;25.13;12.03;;;4.80;99.90;;;;;;4191409;28;20480;-55
2020/12/20 07:24:17;;;;;;;25.43;12.37;;;4.80;99.90;;;;;;4189612;28;20494;-55
2020/12/20 07:26:18;;;;;;;25.37;12.43;;;4.80;99.90;;;;;;4193035;28;20464;-55
2020/12/20 07:28:19;;;;;;;23.33;11.70;;;4.80;99.90;;;;;;4190835;28;22202;-55
2020/12/20 07:30:21;;;;;;;22.47;11.50;;;4.80;99.90;;;;;;4189341;28;20468;-55
2020/12/20 07:32:23;;;;;;;25.60;12.80;;;4.80;99.90;;;;;;4191096;28;20526;-55
2020/12/20 07:34:25;;;;;;;25.07;12.47;;;4.80;99.90;;;;;;4190229;28;20513;-55
2020/12/20 07:36:27;;;;;;;25.60;12.90;;;4.80;99.90;;;;;;4192201;28;20479;-55
2020/12/20 07:38:28;;;;;;;28.67;13.73;;;4.80;99.90;;;;;;4190209;28;20472;-55
2020/12/20 07:40:29;;;;;;;27.37;13.90;;;4.80;99.90;;;;;;4191865;28;20471;-55
2020/12/20 07:42:31;;;;;;;27.07;12.87;;;4.80;99.90;;;;;;4191602;28;20992;-55
2020/12/20 07:44:32;;;;;;;28.37;13.67;;;4.80;99.90;;;;;;4192378;28;20459;-55
2020/12/20 07:46:34;;;;;;;25.50;13.13;;;4.80;99.90;;;;;;4190313;28;20476;-55
2020/12/20 07:48:37;;;;;;;23.23;12.00;;;4.80;99.90;;;;;;4191073;28;20467;-56
2020/12/20 07:50:38;;;;;;;27.63;12.80;;;4.80;99.90;;;;;;4191203;28;20478;-55
2020/12/20 07:52:40;;;;;;;24.27;12.23;;;4.80;99.90;;;;;;4188923;28;20485;-55
2020/12/20 07:54:41;;;;;;;27.07;12.87;;;4.80;99.90;;;;;;4190224;28;20488;-55
2020/12/20 07:56:45;;;;;;;27.60;13.00;;;4.90;99.90;;;;;;4190064;28;20817;-55
2020/12/20 07:58:48;;;;;;;25.97;12.97;;;4.90;99.90;;;;;;4192351;28;20478;-56
2020/12/20 08:00:49;;;;;;;25.73;13.30;;;4.90;99.90;;;;;;4190494;28;20487;-55
2020/12/20 08:02:50;;;;;;;26.03;12.57;;;4.90;99.90;;;;;;4191795;28;20484;-55
2020/12/20 08:05:04;;;;;;;24.83;12.47;;;4.90;99.90;;;;;;4190713;28;20476;-55
2020/12/20 08:07:05;;;;;;;25.60;12.73;;;4.90;99.90;;;;;;4189330;28;20468;-57
2020/12/20 08:09:10;;;;;;;23.83;12.20;;;4.90;99.90;;;;;;4189956;28;21066;-55
2020/12/20 08:11:19;;;;;;;25.53;12.07;;;4.90;99.90;;;;;;4189905;28;20498;-55
2020/12/20 08:13:20;;;;;;;26.40;12.70;;;4.90;99.90;;;;;;4190669;28;20472;-55
2020/12/20 08:15:22;;;;;;;27.93;13.53;;;4.90;99.90;;;;;;4191540;28;20499;-54
2020/12/20 08:17:23;;;;;;;26.27;12.83;;;4.90;99.90;;;;;;4190851;28;20471;-54
2020/12/20 08:19:27;;;;;;;28.27;13.17;;;4.90;99.90;;;;;;4189076;28;20467;-54
2020/12/20 08:21:49;;;;;;;28.00;12.97;;;4.90;99.90;;;;;;4191251;28;20475;-54
2020/12/20 08:23:50;;;;;;;27.80;13.27;;;4.90;99.90;;;;;;4190066;28;20460;-54
2020/12/20 08:25:52;;;;;;;27.07;12.97;;;4.90;99.90;;;;;;4189314;28;20557;-54
2020/12/20 08:27:53;;;;;;;26.23;13.57;;;4.90;99.90;;;;;;4191882;28;20483;-56
2020/12/20 08:29:56;;;;;;;25.70;13.17;;;4.90;99.90;;;;;;4189703;28;20488;-55
2020/12/20 08:32:10;;;;;;;25.43;12.53;;;4.90;99.90;;;;;;4191576;28;20473;-55
2020/12/20 08:34:29;;;;;;;25.07;12.60;;;4.90;99.90;;;;;;4191006;28;20563;-54
2020/12/20 08:36:38;;;;;;;25.63;12.80;;;5.00;99.90;;;;;;4192817;28;20471;-55
2020/12/20 08:38:40;;;;;;;27.93;13.43;;;5.00;99.90;;;;;;4193110;28;20471;-55
2020/12/20 08:40:42;;;;;;;25.53;12.70;;;5.00;99.90;;;;;;4193707;28;20529;-55
2020/12/20 08:42:46;;;;;;;25.47;12.20;;;5.10;99.90;;;;;;4193819;28;20471;-55
2020/12/20 08:44:49;;;;;;;25.40;12.43;;;5.10;99.90;;;;;;4194656;28;20468;-55
2020/12/20 08:46:51;;;;;;;26.30;12.47;;;5.10;99.90;;;;;;4192524;28;21184;-55
2020/12/20 08:48:52;;;;;;;24.70;12.00;;;5.10;99.90;;;;;;4194180;28;21179;-55
2020/12/20 08:50:55;;;;;;;24.87;12.20;;;5.20;99.90;;;;;;4192614;28;20483;-55
2020/12/20 08:53:01;;;;;;;23.40;12.20;;;5.20;99.90;;;;;;4193527;28;20483;-55
2020/12/20 08:55:05;;;;;;;22.63;12.27;;;5.20;99.90;;;;;;4193700;28;20826;-56
2020/12/20 08:57:08;;;;;;;27.60;12.80;;;5.20;99.90;;;;;;4191328;28;20472;-56
2020/12/20 08:59:09;;;;;;;23.30;11.57;;;5.30;99.90;;;;;;4195237;28;20533;-55
2020/12/20 09:01:10;;;;;;;27.10;13.70;;;5.30;99.90;;;;;;4193373;28;20944;-55
2020/12/20 09:03:12;;;;;;;22.87;12.03;;;5.30;99.90;;;;;;4193235;28;20521;-55
2020/12/20 09:05:15;;;;;;;24.83;12.43;;;5.30;99.90;;;;;;4193327;28;20474;-55
2020/12/20 09:07:16;;;;;;;26.60;12.27;;;5.30;99.90;;;;;;4194000;28;20567;-56
2020/12/20 09:09:17;;;;;;;23.87;12.43;;;5.30;99.90;;;;;;4192562;28;20503;-56
2020/12/20 09:11:26;;;;;;;23.30;12.10;;;5.30;99.90;;;;;;4194232;28;20506;-55
2020/12/20 09:13:27;;;;;;;26.73;12.37;;;5.30;99.90;;;;;;4192324;28;20520;-56
2020/12/20 09:15:32;;;;;;;24.07;12.30;;;5.30;99.90;;;;;;4191640;28;20592;-55
2020/12/20 09:17:36;;;;;;;25.60;12.60;;;5.30;99.90;;;;;;4193822;28;20479;-55
2020/12/20 09:19:38;;;;;;;23.40;11.90;;;5.40;99.90;;;;;;4193485;28;20472;-56
2020/12/20 09:21:39;;;;;;;24.83;12.63;;;5.40;99.90;;;;;;4194352;28;20463;-55
2020/12/20 09:23:40;;;;;;;22.33;11.27;;;5.40;99.90;;;;;;4192988;28;20463;-56
2020/12/20 09:25:43;;;;;;;28.00;13.03;;;5.50;99.90;;;;;;4192908;28;20479;-55
2020/12/20 09:27:56;;;;;;;24.00;12.17;;;5.50;99.90;;;;;;4193019;28;20469;-56
2020/12/20 09:29:59;;;;;;;22.93;11.63;;;5.50;99.90;;;;;;4193798;28;20527;-56
2020/12/20 09:32:10;;;;;;;26.20;11.97;;;5.50;99.90;;;;;;4194251;28;22432;-56
2020/12/20 09:34:11;;;;;;;26.80;12.33;;;5.50;99.90;;;;;;4193524;28;20475;-55
2020/12/20 09:36:20;;;;;;;26.37;13.30;;;5.50;99.90;;;;;;4194203;28;20479;-55
2020/12/20 09:38:23;;;;;;;24.43;12.20;;;5.50;99.90;;;;;;4194908;28;20467;-56
2020/12/20 09:40:24;;;;;;;27.27;12.83;;;5.50;99.90;;;;;;4192845;28;20473;-55
2020/12/20 09:42:25;;;;;;;24.53;13.00;;;5.50;99.90;;;;;;4192487;28;21068;-56
2020/12/20 09:44:28;;;;;;;25.13;12.43;;;5.50;99.90;;;;;;4192074;28;20461;-56
2020/12/20 09:46:31;;;;;;;29.50;13.60;;;5.50;99.90;;;;;;4191441;28;20478;-56
2020/12/20 09:48:33;;;;;;;24.97;12.77;;;5.50;99.90;;;;;;4192803;28;20547;-56
2020/12/20 09:50:34;;;;;;;25.93;12.80;;;5.50;99.90;;;;;;4193123;28;20501;-57
2020/12/20 09:52:36;;;;;;;24.30;12.73;;;5.60;99.90;;;;;;4190480;28;20464;-56
2020/12/20 09:54:38;;;;;;;25.77;12.53;;;5.60;99.90;;;;;;4193895;28;20494;-56
2020/12/20 09:56:41;;;;;;;24.30;12.27;;;5.60;99.90;;;;;;4192214;28;20468;-56
2020/12/20 09:58:42;;;;;;;26.27;13.53;;;5.60;99.90;;;;;;4192105;28;20480;-56
2020/12/20 10:00:45;;;;;;;27.07;13.43;;;5.60;99.90;;;;;;4192730;28;21217;-57
2020/12/20 10:02:46;;;;;;;23.93;13.17;;;5.60;99.90;;;;;;4191634;28;20489;-56
2020/12/20 10:04:48;;;;;;;27.97;13.97;;;5.60;99.90;;;;;;4191776;28;20490;-56
2020/12/20 10:06:51;;;;;;;30.00;13.60;;;5.60;99.90;;;;;;4193665;28;20471;-56
2020/12/20 10:08:52;;;;;;;28.57;13.13;;;5.60;99.90;;;;;;4191990;28;20519;-56
2020/12/20 10:10:55;;;;;;;27.13;13.53;;;5.60;99.90;;;;;;4192546;28;20475;-57
2020/12/20 10:12:57;;;;;;;26.60;13.10;;;5.70;99.90;;;;;;4191711;28;20504;-57
2020/12/20 10:14:59;;;;;;;24.60;12.90;;;5.70;99.90;;;;;;4191280;28;20492;-56
2020/12/20 10:17:01;;;;;;;26.30;13.23;;;5.70;99.90;;;;;;4192526;28;20472;-56
2020/12/20 10:19:05;;;;;;;26.67;14.10;;;5.70;99.90;;;;;;4192720;28;20472;-55
2020/12/20 10:21:08;;;;;;;28.37;13.53;;;5.70;99.90;;;;;;4191944;28;20581;-57
2020/12/20 10:23:09;;;;;;;23.90;12.37;;;5.70;99.90;;;;;;4191636;28;21034;-56
2020/12/20 10:25:11;;;;;;;26.30;14.30;;;5.70;99.90;;;;;;4190705;28;20464;-56
2020/12/20 10:27:13;;;;;;;25.23;13.17;;;5.70;99.90;;;;;;4192994;28;20480;-56
2020/12/20 10:29:16;;;;;;;26.47;13.13;;;5.70;99.90;;;;;;4191479;28;21215;-56
2020/12/20 10:31:18;;;;;;;26.43;12.57;;;5.70;99.90;;;;;;4193071;28;20483;-56
2020/12/20 10:33:20;;;;;;;27.23;12.97;;;5.70;99.90;;;;;;4191350;28;20469;-56
2020/12/20 10:35:24;;;;;;;25.73;13.00;;;5.70;99.90;;;;;;4192137;28;20502;-56